Time;durP1;ratioP1;P1;durP2;ratioP2;P2;SDS_P1;SDS_P2;PMS_P1;PMS_P2;Temp;Humidity;BMP_temperature;BMP_pressure;BME280_temperature;BME280_humidity;BME280_pressure;Samples;Min_cycle;Max_cycle;Signal;HPM_P1;HPM_P2
2021/03/05 00:00:06;;;;;;;1999.90;999.90;;;4.60;99.90;;;;;;5020076;28;20600;-81
2021/03/05 00:02:32;;;;;;;1999.90;999.90;;;4.60;99.90;;;;;;5020294;28;20208;-81
2021/03/05 00:04:58;;;;;;;1999.90;999.90;;;4.50;99.90;;;;;;5020021;28;20166;-81
2021/03/05 00:07:23;;;;;;;1999.90;999.90;;;4.50;99.90;;;;;;5019492;28;20201;-81
2021/03/05 00:09:49;;;;;;;1999.90;999.90;;;4.40;99.90;;;;;;5020018;28;20610;-81
2021/03/05 00:12:15;;;;;;;1999.90;999.90;;;4.50;99.90;;;;;;5019801;28;20174;-81
2021/03/05 00:14:43;;;;;;;1999.90;999.90;;;4.60;99.90;;;;;;5002106;28;20172;-81
2021/03/05 00:17:08;;;;;;;1999.90;999.90;;;4.60;99.90;;;;;;5001896;28;20170;-81
2021/03/05 00:19:34;;;;;;;1999.90;999.90;;;4.60;99.90;;;;;;5019011;28;20529;-81
2021/03/05 00:22:00;;;;;;;1999.90;999.90;;;4.60;99.90;;;;;;5019635;28;20166;-81
2021/03/05 00:24:25;;;;;;;1999.90;999.90;;;4.50;99.90;;;;;;5019436;28;20177;-81
2021/03/05 00:26:51;;;;;;;1999.90;999.90;;;4.50;99.90;;;;;;5019169;28;20323;-81
2021/03/05 00:29:19;;;;;;;1999.90;999.90;;;4.40;99.90;;;;;;5001817;28;20166;-81
2021/03/05 00:31:48;;;;;;;1999.90;999.90;;;4.40;99.90;;;;;;5019345;28;20570;-81
2021/03/05 00:34:13;;;;;;;1999.90;999.90;;;4.40;99.90;;;;;;5001480;28;20173;-81
2021/03/05 00:36:39;;;;;;;1999.90;999.90;;;4.40;99.90;;;;;;5019222;28;20165;-81
2021/03/05 00:39:05;;;;;;;1999.90;999.90;;;4.30;99.90;;;;;;5019075;28;20170;-81
2021/03/05 00:41:31;;;;;;;1999.90;999.90;;;4.40;99.90;;;;;;5019385;28;20193;-81
2021/03/05 00:43:57;;;;;;;1999.90;999.90;;;4.30;99.90;;;;;;5019217;28;20409;-81
2021/03/05 00:46:22;;;;;;;1999.90;999.90;;;4.40;99.90;;;;;;5019144;28;20428;-81
2021/03/05 00:48:48;;;;;;;1999.90;999.90;;;4.40;99.90;;;;;;5018624;28;20190;-81
2021/03/05 00:51:13;;;;;;;1999.90;999.90;;;4.40;99.90;;;;;;5018922;28;20703;-81
2021/03/05 00:53:39;;;;;;;1999.90;999.90;;;4.40;99.90;;;;;;5019272;28;20617;-81
2021/03/05 00:56:05;;;;;;;1999.90;999.90;;;4.40;99.90;;;;;;5018443;28;20173;-80
2021/03/05 00:58:30;;;;;;;1999.90;999.90;;;4.40;99.90;;;;;;5019472;28;20204;-82
2021/03/05 01:00:56;;;;;;;1999.90;999.90;;;4.40;99.90;;;;;;5019856;28;20162;-81
2021/03/05 01:03:22;;;;;;;1999.90;999.90;;;4.50;99.90;;;;;;5019441;28;20170;-81
2021/03/05 01:05:47;;;;;;;1999.90;999.90;;;4.50;99.90;;;;;;5019221;28;20161;-81
2021/03/05 01:08:13;;;;;;;1999.90;999.90;;;4.50;99.90;;;;;;5019046;28;20193;-81
2021/03/05 01:10:40;;;;;;;1999.90;999.90;;;4.50;99.90;;;;;;5001397;28;20168;-81
2021/03/05 01:13:06;;;;;;;1999.90;999.90;;;4.50;99.90;;;;;;5002062;28;20411;-81
2021/03/05 01:15:32;;;;;;;1999.90;999.90;;;4.40;99.90;;;;;;5018821;28;20166;-81
2021/03/05 01:17:58;;;;;;;1999.90;999.90;;;4.40;99.90;;;;;;5019506;28;20409;-81
2021/03/05 01:20:26;;;;;;;1999.90;999.90;;;4.40;99.90;;;;;;5019290;28;20219;-81
2021/03/05 01:22:52;;;;;;;1999.90;999.90;;;4.30;99.90;;;;;;5001841;28;20256;-81
2021/03/05 01:25:22;;;;;;;1999.90;999.90;;;4.30;99.90;;;;;;5018926;28;20297;-81
2021/03/05 01:27:48;;;;;;;1999.90;999.90;;;4.30;99.90;;;;;;5018868;28;20185;-81
2021/03/05 01:30:14;;;;;;;1999.90;999.90;;;4.20;99.90;;;;;;5018980;28;20165;-81
2021/03/05 01:32:40;;;;;;;1999.90;999.90;;;4.20;99.90;;;;;;5018616;28;20162;-81
2021/03/05 01:35:13;;;;;;;1999.90;999.90;;;4.20;99.90;;;;;;5000820;28;20170;-81
2021/03/05 01:37:39;;;;;;;1999.90;999.90;;;4.10;99.90;;;;;;5018347;28;20638;-80
2021/03/05 01:40:08;;;;;;;1999.90;999.90;;;4.20;99.90;;;;;;5018093;28;20176;-81
2021/03/05 01:42:59;;;;;;;1999.90;999.90;;;4.20;99.90;;;;;;5046586;23;20491;-85
2021/03/05 01:45:30;;;;;;;1999.90;999.90;;;4.10;99.90;;;;;;5036870;28;20164;-85
2021/03/05 01:48:29;;;;;;;1999.90;999.90;;;4.10;99.90;;;;;;5035796;28;20189;-84
2021/03/05 01:51:16;;;;;;;1999.90;999.90;;;4.10;99.90;;;;;;5036372;28;20158;-85
2021/03/05 01:53:47;;;;;;;1999.90;999.90;;;4.10;99.90;;;;;;5036111;28;20196;-84
2021/03/05 01:56:48;;;;;;;1999.90;999.90;;;4.20;99.90;;;;;;5034662;28;20187;-85
2021/03/05 01:59:39;;;;;;;1999.90;999.90;;;4.10;99.90;;;;;;5014276;28;20200;-84
2021/03/05 02:02:26;;;;;;;1999.90;999.90;;;4.10;99.90;;;;;;5030422;28;20280;-84
2021/03/05 02:04:55;;;;;;;1999.90;999.90;;;4.10;99.90;;;;;;5035645;28;20150;-84
2021/03/05 02:07:20;;;;;;;1999.90;999.90;;;4.10;99.90;;;;;;5033999;28;20196;-84
2021/03/05 02:09:55;;;;;;;1999.90;999.90;;;4.10;99.90;;;;;;5036900;28;20165;-86
2021/03/05 02:12:21;;;;;;;1999.90;999.90;;;4.00;99.90;;;;;;5039086;28;20544;-86
2021/03/05 02:15:02;;;;;;;1999.90;999.90;;;4.00;99.90;;;;;;5039193;28;20165;-86
2021/03/05 02:18:19;;;;;;;1999.90;999.90;;;4.10;99.90;;;;;;5037650;28;20157;-85
2021/03/05 02:21:09;;;;;;;1999.90;999.90;;;4.10;99.90;;;;;;5037879;28;20196;-85
2021/03/05 02:24:21;;;;;;;1999.90;999.90;;;4.00;99.90;;;;;;5039076;28;20191;-86
2021/03/05 02:27:14;;;;;;;1999.90;999.90;;;4.00;99.90;;;;;;5038887;28;20172;-86
2021/03/05 02:30:14;;;;;;;1999.90;999.90;;;4.00;99.90;;;;;;5039287;28;20153;-86
2021/03/05 02:32:57;;;;;;;1999.90;999.90;;;4.00;99.90;;;;;;5037233;28;20184;-86
2021/03/05 02:35:33;;;;;;;1999.90;999.90;;;4.10;99.90;;;;;;5039535;28;20154;-85
2021/03/05 02:38:22;;;;;;;1999.90;999.90;;;4.00;99.90;;;;;;5039782;28;20247;-86
2021/03/05 02:40:58;;;;;;;1999.90;999.90;;;4.00;99.90;;;;;;5038873;28;20253;-85
2021/03/05 02:43:32;;;;;;;1999.90;999.90;;;4.00;99.90;;;;;;5040476;28;20212;-86
2021/03/05 02:46:12;;;;;;;1999.90;999.90;;;4.00;99.90;;;;;;5041048;28;20149;-86
2021/03/05 02:48:51;;;;;;;1999.90;999.90;;;4.00;99.90;;;;;;5040876;28;20270;-86
2021/03/05 02:51:26;;;;;;;1999.90;999.90;;;3.90;99.90;;;;;;5041103;28;20149;-86
2021/03/05 02:54:13;;;;;;;1999.90;999.90;;;4.00;99.90;;;;;;5042373;28;20247;-86
2021/03/05 02:56:49;;;;;;;1999.90;999.90;;;4.00;99.90;;;;;;5020691;28;20200;-85
2021/03/05 02:59:22;;;;;;;1999.90;999.90;;;3.90;99.90;;;;;;5039056;28;20145;-86
2021/03/05 03:02:18;;;;;;;1999.90;999.90;;;3.90;99.90;;;;;;5037274;28;20184;-85
2021/03/05 03:04:59;;;;;;;1999.90;999.90;;;3.80;99.90;;;;;;5043296;28;20609;-86
2021/03/05 03:07:25;;;;;;;1999.90;999.90;;;3.80;99.90;;;;;;5018826;28;20223;-86
2021/03/05 03:09:58;;;;;;;1999.90;999.90;;;3.80;99.90;;;;;;5036003;28;20161;-86
2021/03/05 03:12:27;;;;;;;1999.90;999.90;;;3.90;99.90;;;;;;5036488;28;20411;-87
2021/03/05 03:15:29;;;;;;;1999.90;999.90;;;3.90;99.90;;;;;;5036464;28;20244;-85
2021/03/05 03:18:12;;;;;;;1999.90;999.90;;;4.00;99.90;;;;;;5036077;28;20195;-86
2021/03/05 03:20:50;;;;;;;1999.90;999.90;;;4.00;99.90;;;;;;5040131;28;20145;-86
2021/03/05 03:23:16;;;;;;;1999.90;999.90;;;4.00;99.90;;;;;;5039441;28;20725;-86
2021/03/05 03:25:49;;;;;;;1999.90;999.90;;;4.00;99.90;;;;;;5039765;28;20169;-85
2021/03/05 03:28:42;;;;;;;1999.90;999.90;;;4.00;99.90;;;;;;5040722;28;20470;-86
2021/03/05 03:31:15;;;;;;;1999.90;999.90;;;4.00;99.90;;;;;;5038965;28;20154;-85
2021/03/05 03:33:50;;;;;;;1999.90;999.90;;;3.90;99.90;;;;;;5040484;28;20204;-86
2021/03/05 03:36:40;;;;;;;1999.90;999.90;;;3.90;99.90;;;;;;5040422;28;20219;-86
2021/03/05 03:39:49;;;;;;;1999.90;999.90;;;4.00;99.90;;;;;;5040153;28;20238;-85
2021/03/05 03:42:14;;;;;;;1999.90;999.90;;;4.00;99.90;;;;;;5018882;28;20750;-86
2021/03/05 03:44:49;;;;;;;1999.90;999.90;;;4.00;99.90;;;;;;5039975;28;20181;-86
2021/03/05 03:47:15;;;;;;;1999.90;999.90;;;4.00;99.90;;;;;;5039620;28;20253;-86
2021/03/05 03:50:05;;;;;;;1999.90;999.90;;;4.00;99.90;;;;;;5040310;28;20169;-85
2021/03/05 03:53:04;;;;;;;1999.90;999.90;;;4.10;99.90;;;;;;5032173;28;20205;-86
2021/03/05 03:55:58;;;;;;;1999.90;999.90;;;4.10;99.90;;;;;;5040683;28;20173;-86
2021/03/05 03:58:38;;;;;;;1999.90;999.90;;;4.10;99.90;;;;;;5040786;28;20154;-86
2021/03/05 04:01:22;;;;;;;1999.90;999.90;;;4.10;99.90;;;;;;5040902;28;20150;-85
2021/03/05 04:03:50;;;;;;;1999.90;999.90;;;4.10;99.90;;;;;;5041429;28;20683;-85
2021/03/05 04:06:40;;;;;;;1999.90;999.90;;;4.00;99.90;;;;;;5042085;28;20177;-86
2021/03/05 04:09:15;;;;;;;1999.90;999.90;;;4.10;99.90;;;;;;5040047;28;20200;-85
2021/03/05 04:11:47;;;;;;;1999.90;999.90;;;4.10;99.90;;;;;;5039973;28;20149;-86
2021/03/05 04:14:16;;;;;;;1999.90;999.90;;;4.10;99.90;;;;;;5040079;28;20146;-85
2021/03/05 04:16:48;;;;;;;1999.90;999.90;;;4.00;99.90;;;;;;5038672;28;20188;-85
2021/03/05 04:19:23;;;;;;;1999.90;999.90;;;4.00;99.90;;;;;;5040409;28;20166;-85
2021/03/05 04:21:52;;;;;;;1999.90;999.90;;;4.00;99.90;;;;;;5040564;28;20153;-86
2021/03/05 04:27:49;;;;;;;1999.90;999.90;;;4.00;99.90;;;;;;5023115;28;20595;-85
2021/03/05 04:30:25;;;;;;;1999.90;999.90;;;4.10;99.90;;;;;;5036100;28;20212;-86
2021/03/05 04:33:14;;;;;;;1999.90;999.90;;;4.10;99.90;;;;;;5038354;28;20250;-85
2021/03/05 04:35:39;;;;;;;1999.90;999.90;;;4.20;99.90;;;;;;5032443;28;20292;-85
2021/03/05 04:38:08;;;;;;;1999.90;999.90;;;4.20;99.90;;;;;;5038609;28;20189;-85
2021/03/05 04:40:33;;;;;;;1999.90;999.90;;;4.20;99.90;;;;;;5038204;28;20648;-86
2021/03/05 04:43:05;;;;;;;1999.90;999.90;;;4.20;99.90;;;;;;5038018;28;20234;-84
2021/03/05 04:45:49;;;;;;;1999.90;999.90;;;4.20;99.90;;;;;;5038412;28;20569;-85
2021/03/05 04:48:15;;;;;;;1999.90;999.90;;;4.20;99.90;;;;;;5038255;28;20188;-85
2021/03/05 04:50:47;;;;;;;1999.90;999.90;;;4.20;99.90;;;;;;5036588;28;20169;-84
2021/03/05 04:53:42;;;;;;;1999.90;999.90;;;4.20;99.90;;;;;;5037549;28;20522;-85
2021/03/05 04:56:22;;;;;;;1999.90;999.90;;;4.10;99.90;;;;;;5037746;28;20590;-85
2021/03/05 05:01:56;;;;;;;1999.90;999.90;;;4.10;99.90;;;;;;5036766;28;20170;-84
2021/03/05 05:05:29;;;;;;;1999.90;999.90;;;4.10;99.90;;;;;;5037062;28;20187;-85
2021/03/05 05:07:24;;;;;;;1999.90;999.90;;;4.00;99.90;;;;;;5027271;28;20510;-84
2021/03/05 05:09:51;;;;;;;1999.90;999.90;;;3.90;99.90;;;;;;5036502;28;20164;-84
2021/03/05 05:12:23;;;;;;;1999.90;999.90;;;3.90;99.90;;;;;;5036817;28;20749;-86
2021/03/05 05:14:49;;;;;;;1999.90;999.90;;;4.00;99.90;;;;;;5039025;28;20160;-85
2021/03/05 05:20:15;;;;;;;1999.90;999.90;;;4.00;99.90;;;;;;5038907;28;20196;-86
2021/03/05 05:22:44;;;;;;;1999.90;999.90;;;3.90;99.90;;;;;;5037174;28;20188;-86
2021/03/05 05:25:16;;;;;;;1999.90;999.90;;;3.90;99.90;;;;;;5038618;28;20169;-86
2021/03/05 05:28:01;;;;;;;1999.90;999.90;;;3.80;99.90;;;;;;5038653;28;20185;-85
2021/03/05 05:30:29;;;;;;;1999.90;999.90;;;3.70;99.90;;;;;;5037819;28;20160;-86
2021/03/05 05:33:07;;;;;;;1999.90;999.90;;;3.80;99.90;;;;;;5038417;28;20335;-86
2021/03/05 05:35:59;;;;;;;1999.90;999.90;;;3.80;99.90;;;;;;5038562;28;20225;-85
2021/03/05 05:38:33;;;;;;;1999.90;999.90;;;3.80;99.90;;;;;;5018710;28;20219;-86
2021/03/05 05:41:08;;;;;;;1999.90;999.90;;;3.80;99.90;;;;;;5036292;28;20179;-86
2021/03/05 05:43:44;;;;;;;1999.90;999.90;;;3.70;99.90;;;;;;5037489;28;20196;-85
2021/03/05 05:46:10;;;;;;;1999.90;999.90;;;3.70;99.90;;;;;;5038051;28;20573;-85
2021/03/05 05:49:08;;;;;;;1999.90;999.90;;;3.70;99.90;;;;;;5036124;28;20266;-86
2021/03/05 05:51:51;;;;;;;1999.90;999.90;;;3.70;99.90;;;;;;5001833;28;20586;-85
2021/03/05 05:54:38;;;;;;;1999.90;999.90;;;3.70;99.90;;;;;;5036106;28;20236;-85
2021/03/05 05:57:31;;;;;;;1999.90;999.90;;;3.80;99.90;;;;;;5037381;28;20149;-86
2021/03/05 06:00:09;;;;;;;1999.90;999.90;;;3.90;99.90;;;;;;5036508;28;20168;-84
2021/03/05 06:05:48;;;;;;;1999.90;999.90;;;3.90;99.90;;;;;;5014530;28;20511;-84
2021/03/05 06:08:39;;;;;;;1999.90;999.90;;;3.90;99.90;;;;;;5036218;28;20200;-84
2021/03/05 06:11:15;;;;;;;1999.90;999.90;;;3.90;99.90;;;;;;5035983;28;20630;-85
2021/03/05 06:13:56;;;;;;;1999.90;999.90;;;3.90;99.90;;;;;;5037119;28;20593;-86
2021/03/05 06:16:56;;;;;;;1999.90;999.90;;;3.90;99.90;;;;;;5038025;28;20168;-86
2021/03/05 06:19:31;;;;;;;1999.90;999.90;;;3.80;99.90;;;;;;5020056;28;20196;-86
2021/03/05 06:22:06;;;;;;;1999.90;999.90;;;3.80;99.90;;;;;;5039612;28;20228;-86
2021/03/05 06:24:47;;;;;;;1999.90;999.90;;;3.80;99.90;;;;;;5038899;28;20192;-87
2021/03/05 06:27:15;;;;;;;1999.90;999.90;;;3.80;99.90;;;;;;5038375;28;20161;-86
2021/03/05 06:29:48;;;;;;;1999.90;999.90;;;3.80;99.90;;;;;;5040378;28;20164;-86
2021/03/05 06:32:22;;;;;;;1999.90;999.90;;;3.80;99.90;;;;;;5039776;28;20177;-86
2021/03/05 06:34:50;;;;;;;1999.90;999.90;;;3.90;99.90;;;;;;5039286;28;20145;-86
2021/03/05 06:37:25;;;;;;;1999.90;999.90;;;3.90;99.90;;;;;;5039587;28;20189;-85
2021/03/05 06:40:12;;;;;;;1999.90;999.90;;;3.90;99.90;;;;;;5039426;28;20232;-86
2021/03/05 06:43:34;;;;;;;1999.90;999.90;;;3.90;99.90;;;;;;5037607;28;20220;-87
2021/03/05 06:46:38;;;;;;;1999.90;999.90;;;3.90;99.90;;;;;;5038626;28;20649;-87
2021/03/05 06:52:21;;;;;;;1999.90;999.90;;;3.90;99.90;;;;;;5032972;28;20173;-87
2021/03/05 06:54:49;;;;;;;1999.90;999.90;;;3.90;99.90;;;;;;5038727;28;20149;-87
2021/03/05 06:57:36;;;;;;;1999.90;999.90;;;4.00;99.90;;;;;;5037768;28;20196;-86
2021/03/05 07:00:29;;;;;;;1999.90;999.90;;;4.00;99.90;;;;;;5043591;28;20172;-87
2021/03/05 07:03:24;;;;;;;1999.90;999.90;;;4.00;99.90;;;;;;5033416;28;20262;-86
2021/03/05 07:06:02;;;;;;;1999.90;999.90;;;4.10;99.90;;;;;;5036759;28;20149;-85
2021/03/05 07:08:59;;;;;;;1999.90;999.90;;;4.00;99.90;;;;;;5036110;28;20196;-86
2021/03/05 07:11:54;;;;;;;1999.90;999.90;;;4.00;99.90;;;;;;5035322;28;20161;-85
2021/03/05 07:15:03;;;;;;;1999.90;999.90;;;4.10;99.90;;;;;;5035821;28;20150;-85
2021/03/05 07:17:31;;;;;;;1999.90;999.90;;;4.20;99.90;;;;;;5034052;28;20179;-85
2021/03/05 07:20:29;;;;;;;1999.90;999.90;;;4.10;99.90;;;;;;5034926;28;20702;-85
2021/03/05 07:23:00;;;;;;;1999.90;999.90;;;4.10;99.90;;;;;;5034131;28;20200;-85
2021/03/05 07:25:54;;;;;;;1999.90;999.90;;;4.00;99.90;;;;;;5033469;28;20175;-85
2021/03/05 07:29:18;;;;;;;1999.90;999.90;;;4.00;99.90;;;;;;5034585;28;20287;-85
2021/03/05 07:35:05;;;;;;;1999.90;999.90;;;4.00;99.90;;;;;;5026978;28;20197;-85
2021/03/05 07:38:06;;;;;;;;;;;;;;;;;;;;;
2021/03/05 07:41:22;;;;;;;1999.90;999.90;;;4.00;99.90;;;;;;5034768;28;20175;-86
2021/03/05 07:43:52;;;;;;;1999.90;999.90;;;3.90;99.90;;;;;;5034812;28;20209;-85
2021/03/05 07:46:25;;;;;;;1999.90;999.90;;;3.90;99.90;;;;;;5035987;28;20165;-86
2021/03/05 07:48:51;;;;;;;1999.90;999.90;;;3.80;99.90;;;;;;5035148;28;20180;-85
2021/03/05 07:51:34;;;;;;;1999.90;999.90;;;3.90;99.90;;;;;;5035391;28;20150;-85
2021/03/05 07:54:04;;;;;;;1999.90;999.90;;;3.70;99.90;;;;;;5035247;28;20188;-85
2021/03/05 07:56:52;;;;;;;1999.90;999.90;;;3.70;99.90;;;;;;5035240;28;20161;-87
2021/03/05 08:00:02;;;;;;;1999.90;999.90;;;3.80;99.90;;;;;;5035336;28;20185;-85
2021/03/05 08:02:55;;;;;;;1999.90;999.90;;;3.80;99.90;;;;;;5039860;28;20549;-87
2021/03/05 08:06:03;;;;;;;1999.90;999.90;;;3.80;99.90;;;;;;5037904;28;20491;-85
2021/03/05 08:08:37;;;;;;;1999.90;999.90;;;3.80;99.90;;;;;;5033582;28;20224;-87
2021/03/05 08:11:38;;;;;;;1999.90;999.90;;;3.80;99.90;;;;;;5040864;28;20160;-87
2021/03/05 08:17:46;;;;;;;1999.90;999.90;;;3.90;99.90;;;;;;4999507;28;20336;-86
2021/03/05 08:20:20;;;;;;;1999.90;999.90;;;3.90;99.90;;;;;;4999353;28;20193;-86
2021/03/05 08:23:39;;;;;;;1999.90;999.90;;;3.90;99.90;;;;;;4999852;28;20205;-87
2021/03/05 08:26:17;;;;;;;;;;;;;;;;;;;;;
2021/03/05 08:29:31;;;;;;;1999.90;999.90;;;4.00;99.90;;;;;;5002517;28;20259;-87
2021/03/05 08:32:42;;;;;;;1999.90;999.90;;;3.90;99.90;;;;;;5001917;28;20186;-87
2021/03/05 08:35:21;;;;;;;1999.90;999.90;;;4.00;99.90;;;;;;4972858;28;20211;-86
2021/03/05 08:38:40;;;;;;;1999.90;999.90;;;3.90;99.90;;;;;;5015604;28;20177;-87
2021/03/05 08:41:39;;;;;;;1999.90;999.90;;;3.80;99.90;;;;;;5020954;28;20644;-87
2021/03/05 08:44:14;;;;;;;1999.90;999.90;;;3.90;99.90;;;;;;5031980;28;20308;-86
2021/03/05 08:46:40;;;;;;;1999.90;999.90;;;3.90;99.90;;;;;;5042967;28;20156;-87
2021/03/05 08:49:13;;;;;;;1999.90;999.90;;;3.90;99.90;;;;;;5042693;28;20193;-87
2021/03/05 08:51:47;;;;;;;1999.90;999.90;;;4.00;99.90;;;;;;5040939;28;20410;-87
2021/03/05 08:54:14;;;;;;;1999.90;999.90;;;4.00;99.90;;;;;;5041803;28;20149;-87
2021/03/05 08:56:41;;;;;;;1999.90;999.90;;;4.00;99.90;;;;;;5042702;28;20204;-87
2021/03/05 08:59:09;;;;;;;1999.90;999.90;;;4.10;99.90;;;;;;5040403;28;20204;-87
2021/03/05 09:01:57;;;;;;;1999.90;999.90;;;4.10;99.90;;;;;;5040480;28;20181;-86
2021/03/05 09:04:40;;;;;;;1999.90;999.90;;;4.10;99.90;;;;;;5041384;28;20169;-86
2021/03/05 09:07:22;;;;;;;1999.90;999.90;;;4.20;99.90;;;;;;5040363;28;20161;-86
2021/03/05 09:09:53;;;;;;;1999.90;999.90;;;4.10;99.90;;;;;;5040556;28;20498;-87
2021/03/05 09:13:02;;;;;;;;;;;;;;;;;;;;;
2021/03/05 09:15:54;;;;;;;1999.90;999.90;;;4.20;99.90;;;;;;5041570;28;20252;-87
2021/03/05 09:18:30;;;;;;;1999.90;999.90;;;4.30;99.90;;;;;;5041000;28;20162;-85
2021/03/05 09:21:55;;;;;;;;;;;;;;;;;;;;;
2021/03/05 09:24:47;;;;;;;1999.90;999.90;;;4.30;99.90;;;;;;5039427;28;20271;-85
2021/03/05 09:27:58;;;;;;;1999.90;999.90;;;4.40;99.90;;;;;;5030900;28;20215;-87
2021/03/05 09:34:32;;;;;;;1999.90;999.90;;;4.50;99.90;;;;;;5017560;28;20189;-86
2021/03/05 09:37:54;;;;;;;1999.90;999.90;;;4.60;99.90;;;;;;5017476;28;20178;-85
2021/03/05 09:41:10;;;;;;;1999.90;999.90;;;4.70;99.90;;;;;;5011060;28;20185;-85
2021/03/05 09:44:01;;;;;;;1999.90;999.90;;;4.60;99.90;;;;;;5018908;28;20620;-85
2021/03/05 09:47:43;;;;;;;1999.90;999.90;;;4.70;99.90;;;;;;5036891;28;20246;-85
2021/03/05 09:51:24;;;;;;;;;;;;;;;;;;;;;
2021/03/05 09:54:51;;;;;;;1999.90;999.90;;;4.50;99.90;;;;;;5017413;28;20274;-86
2021/03/05 10:01:11;;;;;;;1999.90;999.90;;;4.90;99.90;;;;;;4960501;29;20532;-87
2021/03/05 10:04:21;;;;;;;1999.90;999.90;;;5.10;99.90;;;;;;4961760;29;20196;-87
2021/03/05 10:07:18;;;;;;;1999.90;999.90;;;5.00;99.90;;;;;;5031368;28;20536;-87
2021/03/05 10:10:25;;;;;;;;;;;;;;;;;;;;;
2021/03/05 10:13:00;;;;;;;1999.90;999.90;;;5.60;99.90;;;;;;4999510;28;20277;-86
2021/03/05 10:16:18;;;;;;;1999.90;999.90;;;5.90;99.90;;;;;;4999298;28;20166;-87
2021/03/05 10:19:23;;;;;;;1999.90;999.90;;;6.00;99.90;;;;;;4978408;28;20223;-87
2021/03/05 10:32:00;;;;;;;1999.90;999.90;;;5.90;99.90;;;;;;4980542;28;20178;-87
2021/03/05 10:35:16;;;;;;;;;;;;;;;;;;;;;
2021/03/05 10:42:00;;;;;;;1999.90;999.90;;;5.40;99.90;;;;;;4937331;29;20173;-87
2021/03/05 10:44:58;;;;;;;1999.90;999.90;;;5.10;99.90;;;;;;4917072;29;20191;-86
2021/03/05 10:47:58;;;;;;;1999.90;999.90;;;5.30;99.90;;;;;;4884679;29;20706;-87
2021/03/05 10:57:18;;;;;;;1999.90;999.90;;;6.00;99.50;;;;;;4948961;28;20252;-86
2021/03/05 11:00:28;;;;;;;1999.90;999.90;;;6.10;98.50;;;;;;5001032;28;20237;-86
2021/03/05 11:03:38;;;;;;;;;;;;;;;;;;;;;
2021/03/05 11:10:48;;;;;;;1999.90;999.90;;;6.10;98.00;;;;;;5036477;28;20168;-85
2021/03/05 11:20:25;;;;;;;1999.90;999.90;;;6.70;75.10;;;;;;4999246;28;20170;-85
2021/03/05 11:23:18;;;;;;;;;;;;;;;;;;;;;
2021/03/05 11:25:53;;;;;;;1999.90;999.90;;;6.40;64.90;;;;;;4996575;28;20254;-86
2021/03/05 11:28:47;;;;;;;1999.90;999.90;;;6.20;62.30;;;;;;4980589;28;20217;-85
2021/03/05 11:34:11;;;;;;;1999.90;999.90;;;6.10;75.40;;;;;;5025753;23;20233;-81
2021/03/05 11:36:37;;;;;;;1999.90;999.90;;;6.10;86.60;;;;;;5016087;28;20354;-81
2021/03/05 11:39:04;;;;;;;1999.90;999.90;;;6.30;90.20;;;;;;5017178;28;20182;-80
2021/03/05 11:41:30;;;;;;;1999.90;999.90;;;6.70;79.90;;;;;;5020946;28;20185;-81
2021/03/05 11:43:55;;;;;;;1999.90;999.90;;;6.70;57.10;;;;;;5021896;28;20166;-81
2021/03/05 11:46:22;;;;;;;1999.90;999.90;;;6.40;55.30;;;;;;5021338;28;20170;-81
2021/03/05 11:48:49;;;;;;;1999.90;999.90;;;6.70;74.60;;;;;;5021889;28;20258;-81
2021/03/05 11:51:16;;;;;;;1999.90;999.90;;;7.20;77.30;;;;;;5021516;28;20161;-81
2021/03/05 11:53:42;;;;;;;1999.90;999.90;;;7.30;72.60;;;;;;5019622;28;20166;-81
2021/03/05 11:56:08;;;;;;;1999.90;999.90;;;7.50;47.80;;;;;;5021729;28;20201;-81
2021/03/05 11:58:34;;;;;;;1999.90;999.90;;;7.40;52.30;;;;;;5019814;28;20224;-81
2021/03/05 12:01:01;;;;;;;1999.90;999.90;;;7.40;47.30;;;;;;5021172;28;20166;-81
2021/03/05 12:03:27;;;;;;;1999.90;999.90;;;7.50;40.00;;;;;;5020070;28;20166;-81
2021/03/05 12:05:52;;;;;;;1999.90;999.90;;;7.50;40.30;;;;;;5020968;28;20647;-82
2021/03/05 12:08:18;;;;;;;1999.90;999.90;;;7.60;28.50;;;;;;5019263;28;20440;-81
2021/03/05 12:10:44;;;;;;;1999.90;999.90;;;7.50;27.00;;;;;;5022740;28;20170;-81
2021/03/05 12:13:11;;;;;;;1999.90;999.90;;;7.10;22.20;;;;;;5021892;28;20170;-80
2021/03/05 12:15:38;;;;;;;1999.90;999.90;;;6.80;26.40;;;;;;5021340;28;20162;-81
2021/03/05 12:18:05;;;;;;;1999.90;999.90;;;6.60;28.70;;;;;;5020838;28;20166;-81
2021/03/05 12:20:30;;;;;;;1999.90;999.90;;;6.90;22.60;;;;;;5021190;28;20181;-81
2021/03/05 12:22:56;;;;;;;1999.90;999.90;;;7.10;19.10;;;;;;5020538;28;20169;-80
2021/03/05 12:25:22;;;;;;;1999.90;999.90;;;7.40;25.30;;;;;;5020444;28;20252;-80
2021/03/05 12:27:47;;;;;;;1999.90;999.90;;;7.90;27.80;;;;;;5020547;28;20201;-81
2021/03/05 12:30:14;;;;;;;1999.90;999.90;;;8.20;21.20;;;;;;5020388;28;20409;-80
2021/03/05 12:32:39;;;;;;;1999.90;999.90;;;8.30;23.40;;;;;;5021399;28;20644;-81
2021/03/05 12:35:06;;;;;;;1999.90;999.90;;;8.20;18.60;;;;;;5020848;28;20222;-80
2021/03/05 12:37:32;;;;;;;1999.90;999.90;;;7.80;20.30;;;;;;5021260;28;20196;-81
2021/03/05 12:39:58;;;;;;;1999.90;999.90;;;7.40;18.30;;;;;;5020481;28;20166;-81
2021/03/05 12:42:23;;;;;;;1999.90;999.90;;;7.10;20.10;;;;;;5020155;28;20166;-81
2021/03/05 12:44:49;;;;;;;1999.90;999.90;;;7.00;22.10;;;;;;5020802;28;20466;-81
2021/03/05 12:47:15;;;;;;;1999.90;999.90;;;7.00;22.00;;;;;;5020439;28;20158;-81
2021/03/05 12:49:40;;;;;;;1999.90;999.90;;;7.10;21.70;;;;;;5020833;28;20162;-80
2021/03/05 12:52:06;;;;;;;1999.90;999.90;;;7.00;19.90;;;;;;5020465;28;20567;-81
2021/03/05 12:54:32;;;;;;;1999.90;999.90;;;6.70;23.00;;;;;;5020622;28;20532;-81
2021/03/05 12:56:57;;;;;;;1999.90;999.90;;;6.70;20.00;;;;;;5020653;28;20504;-80
2021/03/05 12:59:23;;;;;;;1999.90;999.90;;;6.70;16.80;;;;;;5019831;28;20220;-80
2021/03/05 13:01:49;;;;;;;1999.90;999.90;;;6.80;17.60;;;;;;5020173;28;20714;-80
2021/03/05 13:04:15;;;;;;;1999.90;999.90;;;7.00;17.40;;;;;;5020082;28;20170;-79
2021/03/05 13:06:41;;;;;;;1999.90;999.90;;;7.10;15.20;;;;;;5020465;28;20407;-79
2021/03/05 13:09:07;;;;;;;1999.90;999.90;;;6.80;15.20;;;;;;5019830;28;20440;-80
2021/03/05 13:11:36;;;;;;;1999.90;999.90;;;6.60;14.40;;;;;;5019982;28;20409;-79
2021/03/05 13:14:05;;;;;;;1999.90;999.90;;;6.50;14.40;;;;;;5018662;28;20943;-79
2021/03/05 13:16:31;;;;;;;1999.90;999.90;;;6.50;9.80;;;;;;5018230;28;20173;-79
2021/03/05 13:18:57;;;;;;;1999.90;999.90;;;6.20;7.30;;;;;;5020217;28;20541;-80
2021/03/05 13:21:23;;;;;;;1999.90;999.90;;;6.20;12.30;;;;;;5018761;28;20178;-79
2021/03/05 13:23:48;;;;;;;1999.90;999.90;;;6.50;11.20;;;;;;5020194;28;20420;-81
2021/03/05 13:26:15;;;;;;;1999.90;999.90;;;6.80;10.20;;;;;;5019675;28;20166;-81
2021/03/05 13:28:43;;;;;;;1999.90;999.90;;;6.90;10.70;;;;;;5019714;28;20197;-80
2021/03/05 13:31:12;;;;;;;1999.90;999.90;;;6.80;9.40;;;;;;5018563;28;20166;-81
2021/03/05 13:33:38;;;;;;;1999.90;999.90;;;6.80;11.60;;;;;;5019310;28;20185;-81
2021/03/05 13:36:04;;;;;;;1999.90;999.90;;;6.60;10.10;;;;;;5019218;28;20636;-81
2021/03/05 13:38:30;;;;;;;1999.90;999.90;;;6.60;10.00;;;;;;5019386;28;20659;-81
2021/03/05 13:40:56;;;;;;;1999.90;999.90;;;6.70;8.40;;;;;;5019151;28;20174;-81
2021/03/05 13:43:23;;;;;;;1999.90;999.90;;;6.70;7.60;;;;;;5019515;28;20174;-80
2021/03/05 13:45:50;;;;;;;1999.90;999.90;;;6.80;6.20;;;;;;5019642;28;20176;-80
2021/03/05 13:48:16;;;;;;;1999.90;999.90;;;6.60;5.80;;;;;;5018805;28;20193;-81
2021/03/05 13:50:42;;;;;;;1999.90;999.90;;;6.50;6.40;;;;;;5019456;28;20170;-81
2021/03/05 13:53:08;;;;;;;1999.90;999.90;;;6.20;8.40;;;;;;5018947;28;20437;-81
2021/03/05 13:55:34;;;;;;;1999.90;999.90;;;6.10;9.10;;;;;;5019336;28;20162;-80
2021/03/05 13:57:59;;;;;;;1999.90;999.90;;;6.30;10.40;;;;;;5019028;28;20769;-80
2021/03/05 14:00:25;;;;;;;1999.90;999.90;;;6.40;8.80;;;;;;5019109;28;20185;-81
2021/03/05 14:02:51;;;;;;;1999.90;999.90;;;6.40;6.60;;;;;;5020743;28;20181;-78
2021/03/05 14:05:16;;;;;;;1999.90;999.90;;;6.30;7.40;;;;;;5022131;28;20415;-80
2021/03/05 14:07:43;;;;;;;1999.90;999.90;;;6.40;8.00;;;;;;5018712;28;20186;-80
2021/03/05 14:10:09;;;;;;;1999.90;999.90;;;6.40;10.60;;;;;;5019280;28;20169;-81
2021/03/05 14:12:35;;;;;;;1999.90;999.90;;;6.50;6.60;;;;;;5018462;28;20246;-81
2021/03/05 14:15:00;;;;;;;1999.90;999.90;;;6.60;4.70;;;;;;5017463;28;20258;-81
2021/03/05 14:17:26;;;;;;;1999.90;999.90;;;6.60;3.60;;;;;;5018099;28;20158;-80